Time;durP1;ratioP1;P1;durP2;ratioP2;P2;SDS_P1;SDS_P2;PMS_P1;PMS_P2;Temp;Humidity;BMP_temperature;BMP_pressure;BME280_temperature;BME280_humidity;BME280_pressure;Samples;Min_cycle;Max_cycle;Signal;HPM_P1;HPM_P2
2023/10/18 00:00:04;;;;;;;19.15;12.05;;;;;;;;;;5056402;28;20021;-69
2023/10/18 00:02:30;;;;;;;17.02;11.52;;;;;;;;;;5056260;28;20027;-70
2023/10/18 00:04:57;;;;;;;16.13;11.40;;;;;;;;;;5056159;28;20441;-69
2023/10/18 00:07:22;;;;;;;17.55;11.55;;;;;;;;;;5056219;28;20415;-71
2023/10/18 00:09:50;;;;;;;21.13;11.68;;;;;;;;;;5056106;28;20066;-71
2023/10/18 00:12:20;;;;;;;19.55;11.63;;;;;;;;;;5056319;28;20121;-70
2023/10/18 00:14:46;;;;;;;19.88;11.13;;;;;;;;;;5056040;28;20021;-70
2023/10/18 00:17:12;;;;;;;18.05;11.45;;;;;;;;;;5056040;28;20021;-70
2023/10/18 00:19:37;;;;;;;19.35;11.82;;;;;;;;;;5055945;28;20369;-70
2023/10/18 00:22:03;;;;;;;17.35;10.98;;;;;;;;;;5038045;28;20119;-71
2023/10/18 00:24:29;;;;;;;24.00;11.55;;;;;;;;;;5038017;28;20021;-70
2023/10/18 00:26:54;;;;;;;20.50;12.02;;;;;;;;;;5055675;28;20096;-70
2023/10/18 00:29:19;;;;;;;19.50;11.77;;;;;;;;;;5037270;28;20087;-70
2023/10/18 00:31:45;;;;;;;20.40;12.20;;;;;;;;;;5037832;28;20017;-70
2023/10/18 00:34:11;;;;;;;25.30;12.43;;;;;;;;;;5055825;28;20262;-70
2023/10/18 00:36:37;;;;;;;20.80;11.98;;;;;;;;;;5055691;28;20816;-71
2023/10/18 00:39:18;;;;;;;18.83;11.70;;;;;;;;;;5038223;28;20029;-71
2023/10/18 00:41:44;;;;;;;21.20;12.90;;;;;;;;;;5055725;28;20036;-70
2023/10/18 00:44:11;;;;;;;19.00;11.63;;;;;;;;;;5055664;28;20468;-70
2023/10/18 00:46:39;;;;;;;22.17;12.38;;;;;;;;;;5037658;28;20017;-70
2023/10/18 00:49:13;;;;;;;21.55;12.52;;;;;;;;;;5055288;28;20096;-71
2023/10/18 00:51:38;;;;;;;21.48;13.07;;;;;;;;;;5055389;28;20036;-70
2023/10/18 00:54:10;;;;;;;23.27;12.45;;;;;;;;;;5055244;28;20035;-70
2023/10/18 00:56:37;;;;;;;22.67;12.73;;;;;;;;;;5055438;28;20017;-71
2023/10/18 00:59:05;;;;;;;23.92;13.05;;;;;;;;;;5055339;28;20281;-71
2023/10/18 01:01:31;;;;;;;22.30;12.80;;;;;;;;;;5055176;28;20032;-71
2023/10/18 01:03:57;;;;;;;22.60;13.30;;;;;;;;;;5055278;28;20036;-71
2023/10/18 01:06:26;;;;;;;21.33;12.10;;;;;;;;;;5055191;28;20025;-71
2023/10/18 01:08:52;;;;;;;24.65;13.20;;;;;;;;;;5055097;28;20259;-71
2023/10/18 01:11:23;;;;;;;23.25;12.52;;;;;;;;;;5054665;28;20400;-70
2023/10/18 01:13:48;;;;;;;21.20;12.68;;;;;;;;;;5037092;28;20017;-71
2023/10/18 01:16:14;;;;;;;23.73;13.73;;;;;;;;;;5055074;28;20033;-71
2023/10/18 01:18:43;;;;;;;23.40;12.85;;;;;;;;;;5054878;28;20275;-70
2023/10/18 01:21:16;;;;;;;19.50;12.70;;;;;;;;;;5054995;28;20025;-70
2023/10/18 01:23:52;;;;;;;22.88;13.02;;;;;;;;;;5055000;28;20468;-70
2023/10/18 01:26:28;;;;;;;22.67;13.48;;;;;;;;;;5054664;28;20104;-70
2023/10/18 01:28:54;;;;;;;22.75;12.80;;;;;;;;;;5054614;28;20025;-70
2023/10/18 01:31:20;;;;;;;22.73;13.30;;;;;;;;;;5036698;28;20071;-70
2023/10/18 01:33:47;;;;;;;21.92;12.43;;;;;;;;;;5054691;28;20469;-70
2023/10/18 01:36:14;;;;;;;22.40;12.18;;;;;;;;;;5054683;28;20021;-70
2023/10/18 01:38:42;;;;;;;24.38;12.68;;;;;;;;;;5036529;28;20116;-70
2023/10/18 01:41:13;;;;;;;21.42;12.63;;;;;;;;;;5054492;28;20024;-70
2023/10/18 01:43:38;;;;;;;26.60;13.50;;;;;;;;;;5054708;28;20021;-71
2023/10/18 01:46:08;;;;;;;21.10;12.85;;;;;;;;;;5054314;28;20066;-71
2023/10/18 01:48:37;;;;;;;24.42;13.10;;;;;;;;;;5036399;28;20059;-70
2023/10/18 01:51:03;;;;;;;21.40;13.50;;;;;;;;;;5054379;28;20013;-70
2023/10/18 01:53:29;;;;;;;21.05;12.85;;;;;;;;;;5054207;28;20024;-70
2023/10/18 01:55:57;;;;;;;23.10;13.32;;;;;;;;;;5054259;28;20357;-70
2023/10/18 01:58:25;;;;;;;20.88;12.13;;;;;;;;;;5054271;28;20023;-70
2023/10/18 02:00:52;;;;;;;26.25;12.95;;;;;;;;;;5054278;28;20059;-71
2023/10/18 02:03:19;;;;;;;22.13;12.23;;;;;;;;;;5054144;28;20040;-69
2023/10/18 02:05:44;;;;;;;23.23;12.82;;;;;;;;;;5036111;28;20032;-70
2023/10/18 02:08:11;;;;;;;21.25;12.45;;;;;;;;;;5054018;28;20020;-70
2023/10/18 02:10:40;;;;;;;22.05;12.52;;;;;;;;;;5053807;28;20040;-70
2023/10/18 02:13:05;;;;;;;22.70;12.13;;;;;;;;;;5053888;28;20496;-70
2023/10/18 02:15:32;;;;;;;24.27;12.20;;;;;;;;;;5054232;28;20021;-70
2023/10/18 02:17:58;;;;;;;25.58;12.60;;;;;;;;;;5054042;28;20271;-70
2023/10/18 02:20:26;;;;;;;19.40;12.07;;;;;;;;;;5053907;28;20020;-70
2023/10/18 02:23:01;;;;;;;21.00;12.40;;;;;;;;;;5053741;28;20266;-70
2023/10/18 02:25:45;;;;;;;21.60;12.20;;;;;;;;;;5053912;28;20048;-70
2023/10/18 02:28:23;;;;;;;23.80;12.55;;;;;;;;;;5053738;28;20021;-70
2023/10/18 02:30:56;;;;;;;21.30;11.88;;;;;;;;;;5053638;28;20017;-70
2023/10/18 02:33:26;;;;;;;21.63;12.07;;;;;;;;;;5053707;28;20464;-70
2023/10/18 02:35:51;;;;;;;23.02;12.77;;;;;;;;;;5053396;28;20476;-71
2023/10/18 02:38:18;;;;;;;22.70;12.20;;;;;;;;;;5053544;28;20017;-70
2023/10/18 02:40:44;;;;;;;22.00;12.43;;;;;;;;;;5035550;28;20154;-70
2023/10/18 02:43:11;;;;;;;22.23;12.80;;;;;;;;;;5053623;28;20059;-70
2023/10/18 02:45:37;;;;;;;23.00;12.35;;;;;;;;;;5053402;28;20488;-70
2023/10/18 02:48:03;;;;;;;20.52;12.20;;;;;;;;;;5035573;28;20427;-71
2023/10/18 02:50:30;;;;;;;20.83;12.70;;;;;;;;;;5053022;28;20035;-70
2023/10/18 02:52:57;;;;;;;20.88;12.85;;;;;;;;;;5053206;28;20091;-71
2023/10/18 02:55:24;;;;;;;24.00;12.95;;;;;;;;;;5035463;28;20082;-70
2023/10/18 02:57:49;;;;;;;20.67;12.43;;;;;;;;;;5053153;28;20020;-71
2023/10/18 03:00:17;;;;;;;23.10;12.52;;;;;;;;;;5053217;28;20543;-70
2023/10/18 03:02:42;;;;;;;21.98;13.07;;;;;;;;;;5053067;28;20029;-70
2023/10/18 03:05:08;;;;;;;23.42;13.38;;;;;;;;;;5052989;28;20036;-70
2023/10/18 03:07:34;;;;;;;25.98;13.45;;;;;;;;;;5053055;28;20049;-70
2023/10/18 03:10:11;;;;;;;21.77;13.02;;;;;;;;;;5053177;28;20468;-70
2023/10/18 03:12:36;;;;;;;23.75;12.63;;;;;;;;;;5052954;28;20070;-70
2023/10/18 03:15:08;;;;;;;21.27;12.13;;;;;;;;;;5053060;28;20116;-70
2023/10/18 03:17:36;;;;;;;24.58;12.77;;;;;;;;;;5053043;28;20028;-70
2023/10/18 03:20:07;;;;;;;22.90;13.13;;;;;;;;;;5035203;28;20025;-71
2023/10/18 03:22:32;;;;;;;22.77;12.65;;;;;;;;;;5035149;28;20032;-70
2023/10/18 03:25:00;;;;;;;23.50;12.07;;;;;;;;;;5052826;28;20461;-71
2023/10/18 03:27:33;;;;;;;23.17;12.00;;;;;;;;;;5052897;28;20017;-70
2023/10/18 03:29:58;;;;;;;24.00;12.98;;;;;;;;;;5053064;28;20009;-70
2023/10/18 03:32:24;;;;;;;24.75;11.95;;;;;;;;;;5035175;28;20020;-70
2023/10/18 03:34:52;;;;;;;21.55;12.65;;;;;;;;;;5053052;28;20078;-70
2023/10/18 03:37:26;;;;;;;22.23;12.40;;;;;;;;;;5052849;28;20025;-70
2023/10/18 03:39:55;;;;;;;22.58;12.45;;;;;;;;;;5052993;28;20020;-71
2023/10/18 03:42:33;;;;;;;22.45;12.43;;;;;;;;;;5052866;28;20473;-71
2023/10/18 03:44:59;;;;;;;24.88;12.93;;;;;;;;;;5034775;28;20476;-71
2023/10/18 03:47:24;;;;;;;23.85;13.30;;;;;;;;;;5034773;28;20017;-71
2023/10/18 03:49:53;;;;;;;24.85;13.02;;;;;;;;;;5052908;28;20014;-70
2023/10/18 03:52:18;;;;;;;25.27;13.68;;;;;;;;;;5034751;28;20103;-71
2023/10/18 03:54:45;;;;;;;23.40;13.50;;;;;;;;;;5053003;28;20053;-70
2023/10/18 03:57:16;;;;;;;23.88;12.85;;;;;;;;;;5052708;28;20025;-71
2023/10/18 03:59:41;;;;;;;22.67;12.70;;;;;;;;;;5052662;28;20075;-70
2023/10/18 04:02:16;;;;;;;23.85;12.75;;;;;;;;;;5052696;28;20074;-70
2023/10/18 04:04:45;;;;;;;23.35;12.85;;;;;;;;;;5056369;28;20021;-70
2023/10/18 04:07:13;;;;;;;22.90;12.88;;;;;;;;;;5056318;28;20017;-70
2023/10/18 04:10:25;;;;;;;20.58;12.80;;;;;;;;;;5056262;28;20469;-70
2023/10/18 04:12:32;;;;;;;24.95;13.43;;;;;;;;;;5042806;28;20049;-70
2023/10/18 04:15:03;;;;;;;24.30;13.15;;;;;;;;;;5056027;28;20468;-71
2023/10/18 04:20:01;;;;;;;22.77;13.07;;;;;;;;;;5056446;28;20111;-70
2023/10/18 04:22:27;;;;;;;27.25;12.95;;;;;;;;;;5055943;28;20017;-70
2023/10/18 04:24:53;;;;;;;23.77;12.77;;;;;;;;;;5055934;28;20028;-70
2023/10/18 04:27:18;;;;;;;24.10;12.98;;;;;;;;;;5055839;28;20025;-70
2023/10/18 04:29:47;;;;;;;21.87;13.20;;;;;;;;;;5055918;28;20017;-70
2023/10/18 04:32:18;;;;;;;25.85;12.98;;;;;;;;;;5055851;28;20284;-70
2023/10/18 04:34:44;;;;;;;21.20;12.82;;;;;;;;;;5055871;28;20021;-70
2023/10/18 04:37:12;;;;;;;21.80;12.88;;;;;;;;;;5055895;28;20028;-70
2023/10/18 04:39:38;;;;;;;24.70;13.30;;;;;;;;;;5055635;28;20487;-71
2023/10/18 04:42:06;;;;;;;22.88;13.25;;;;;;;;;;5055562;28;20099;-71
2023/10/18 04:44:34;;;;;;;21.00;12.40;;;;;;;;;;5055597;28;20021;-71
2023/10/18 04:47:01;;;;;;;25.67;13.88;;;;;;;;;;5055695;28;20009;-71
2023/10/18 04:49:38;;;;;;;23.35;13.00;;;;;;;;;;5055546;28;20328;-70
2023/10/18 04:52:05;;;;;;;22.88;12.68;;;;;;;;;;5037601;28;20047;-70
2023/10/18 04:54:37;;;;;;;24.25;13.25;;;;;;;;;;5055701;28;20020;-70
2023/10/18 04:57:06;;;;;;;23.10;12.48;;;;;;;;;;5055554;28;20028;-70
2023/10/18 04:59:44;;;;;;;25.08;13.05;;;;;;;;;;5055190;28;20070;-71
2023/10/18 05:02:16;;;;;;;23.70;12.45;;;;;;;;;;5055214;28;20024;-70
2023/10/18 05:04:41;;;;;;;26.13;13.00;;;;;;;;;;5055333;28;20111;-70
2023/10/18 05:09:43;;;;;;;23.13;12.88;;;;;;;;;;5055474;28;20079;-71
2023/10/18 05:14:50;;;;;;;25.48;12.98;;;;;;;;;;5054543;28;20028;-70
2023/10/18 05:17:21;;;;;;;24.38;13.15;;;;;;;;;;5054879;28;20475;-70
2023/10/18 05:19:47;;;;;;;24.98;12.98;;;;;;;;;;5054847;28;20020;-69
2023/10/18 05:22:17;;;;;;;24.83;12.98;;;;;;;;;;5054821;28;20029;-70
2023/10/18 05:24:42;;;;;;;23.08;12.95;;;;;;;;;;5054832;28;20048;-71
2023/10/18 05:27:19;;;;;;;22.88;12.55;;;;;;;;;;5054805;28;20037;-70
2023/10/18 05:29:52;;;;;;;21.80;12.55;;;;;;;;;;5054686;28;20013;-71
2023/10/18 05:35:27;;;;;;;21.33;12.18;;;;;;;;;;4966521;28;20038;-70
2023/10/18 05:43:22;;;;;;;25.07;13.23;;;;;;;;;;5054473;28;20021;-71
2023/10/18 05:45:48;;;;;;;24.45;12.40;;;;;;;;;;5054482;28;20368;-71
2023/10/18 05:48:13;;;;;;;25.20;12.98;;;;;;;;;;5054704;28;20468;-70
2023/10/18 05:50:39;;;;;;;23.00;12.38;;;;;;;;;;5036504;28;20362;-71
2023/10/18 05:53:11;;;;;;;25.58;12.68;;;;;;;;;;5054439;28;20021;-70
2023/10/18 05:55:38;;;;;;;25.02;13.00;;;;;;;;;;5054251;28;20511;-71
2023/10/18 05:58:04;;;;;;;21.40;11.70;;;;;;;;;;5036265;28;20492;-70
2023/10/18 06:00:32;;;;;;;25.30;12.73;;;;;;;;;;5054019;28;20012;-70
2023/10/18 06:02:58;;;;;;;23.30;12.50;;;;;;;;;;5054068;28;20039;-71
2023/10/18 06:05:23;;;;;;;25.05;12.50;;;;;;;;;;5053865;28;20025;-71
2023/10/18 06:07:49;;;;;;;23.15;11.75;;;;;;;;;;5036082;28;20426;-69
2023/10/18 06:10:17;;;;;;;25.08;13.93;;;;;;;;;;5054058;28;20021;-70
2023/10/18 06:12:48;;;;;;;22.98;12.85;;;;;;;;;;5053791;28;20177;-70
2023/10/18 06:15:14;;;;;;;23.92;12.40;;;;;;;;;;5054016;28;20020;-70
2023/10/18 06:20:30;;;;;;;22.85;12.65;;;;;;;;;;5054003;28;20090;-70
2023/10/18 06:23:40;;;;;;;23.42;12.07;;;;;;;;;;5053705;28;20059;-70
2023/10/18 06:25:44;;;;;;;22.38;12.15;;;;;;;;;;5035497;28;20032;-70
2023/10/18 06:28:10;;;;;;;24.40;12.52;;;;;;;;;;5053593;28;20495;-70
2023/10/18 06:30:41;;;;;;;25.35;12.48;;;;;;;;;;5053816;28;20013;-71
2023/10/18 06:33:07;;;;;;;25.08;12.75;;;;;;;;;;5053581;28;20013;-71
2023/10/18 06:35:41;;;;;;;24.77;11.73;;;;;;;;;;5053607;28;20088;-70
2023/10/18 06:38:09;;;;;;;20.67;12.35;;;;;;;;;;5053522;28;20041;-70
2023/10/18 06:43:20;;;;;;;25.02;11.90;;;;;;;;;;5053455;28;20036;-71
2023/10/18 06:45:46;;;;;;;21.50;12.35;;;;;;;;;;5053405;28;20029;-71
2023/10/18 06:48:14;;;;;;;21.67;12.50;;;;;;;;;;5053547;28;20052;-70
2023/10/18 06:50:40;;;;;;;24.73;12.52;;;;;;;;;;5035780;28;20361;-71
2023/10/18 06:53:06;;;;;;;23.40;12.23;;;;;;;;;;5053216;28;20074;-70
2023/10/18 06:58:13;;;;;;;22.23;11.50;;;;;;;;;;5053471;28;20063;-69
2023/10/18 07:00:43;;;;;;;21.58;11.95;;;;;;;;;;5053182;28;20021;-70
2023/10/18 07:03:08;;;;;;;24.27;11.93;;;;;;;;;;5035252;28;20552;-70
2023/10/18 07:05:35;;;;;;;23.25;11.35;;;;;;;;;;5053158;28;20017;-69
2023/10/18 07:08:01;;;;;;;23.25;11.73;;;;;;;;;;5053675;28;20013;-70
2023/10/18 07:10:53;;;;;;;20.65;11.35;;;;;;;;;;5053021;28;20099;-70
2023/10/18 07:13:17;;;;;;;22.15;11.57;;;;;;;;;;5053153;28;20072;-69
2023/10/18 07:15:42;;;;;;;21.07;11.40;;;;;;;;;;5053340;28;20025;-69
2023/10/18 07:18:13;;;;;;;22.73;11.87;;;;;;;;;;5035789;28;20366;-69
2023/10/18 07:20:39;;;;;;;19.08;11.13;;;;;;;;;;5035857;28;20382;-70
2023/10/18 07:23:05;;;;;;;25.10;11.82;;;;;;;;;;5053891;28;20055;-69
2023/10/18 07:25:32;;;;;;;23.42;11.63;;;;;;;;;;5053505;28;20017;-69
2023/10/18 07:27:59;;;;;;;21.58;11.40;;;;;;;;;;5053886;28;20017;-69
2023/10/18 07:30:37;;;;;;;23.92;12.30;;;;;;;;;;5054246;28;20487;-69
2023/10/18 07:33:02;;;;;;;19.27;11.40;;;;;;;;;;5054269;28;20024;-70
2023/10/18 07:35:30;;;;;;;20.40;11.60;;;;;;;;;;5054605;28;20468;-69
2023/10/18 07:37:55;;;;;;;24.35;11.48;;;;;;;;;;5039300;28;20020;-69
2023/10/18 07:40:21;;;;;;;20.15;10.82;;;;;;;;;;5070943;28;20033;-70
2023/10/18 07:42:50;;;;;;;22.52;11.07;;;;;;;;;;5075306;28;20070;-70
2023/10/18 07:45:16;;;;;;;19.67;10.80;;;;;;;;;;5075982;28;20031;-69
2023/10/18 07:47:42;;;;;;;17.38;10.77;;;;;;;;;;5076749;28;20017;-70
2023/10/18 07:52:55;;;;;;;18.15;10.90;;;;;;;;;;5077861;28;20070;-70
2023/10/18 07:55:23;;;;;;;19.02;10.63;;;;;;;;;;5060037;28;20005;-70
2023/10/18 07:57:49;;;;;;;17.33;10.30;;;;;;;;;;5077517;28;20044;-69
2023/10/18 08:00:23;;;;;;;21.27;11.07;;;;;;;;;;5077412;28;20009;-71
2023/10/18 08:02:52;;;;;;;18.42;10.52;;;;;;;;;;5079156;28;20017;-71
2023/10/18 08:05:30;;;;;;;18.60;10.25;;;;;;;;;;5079332;28;20013;-72
2023/10/18 08:07:57;;;;;;;16.15;9.50;;;;;;;;;;5078866;28;20013;-70
2023/10/18 08:10:23;;;;;;;15.50;9.80;;;;;;;;;;5061534;28;20019;-71
2023/10/18 08:13:07;;;;;;;15.93;9.80;;;;;;;;;;5079532;28;20060;-72
2023/10/18 08:15:36;;;;;;;16.63;9.68;;;;;;;;;;5079344;28;20025;-69
2023/10/18 08:18:14;;;;;;;14.70;9.60;;;;;;;;;;5073809;28;20025;-69
2023/10/18 08:23:34;;;;;;;15.07;9.73;;;;;;;;;;5061520;28;20028;-70
2023/10/18 08:26:05;;;;;;;14.07;9.20;;;;;;;;;;5060388;28;20056;-70
2023/10/18 08:28:46;;;;;;;16.52;9.38;;;;;;;;;;5041595;28;20547;-70
2023/10/18 08:31:34;;;;;;;14.55;8.98;;;;;;;;;;5058170;28;20013;-70
2023/10/18 08:34:04;;;;;;;13.43;8.65;;;;;;;;;;5057005;28;20021;-71
2023/10/18 08:36:30;;;;;;;12.77;8.57;;;;;;;;;;5058126;28;20028;-70
2023/10/18 08:38:56;;;;;;;13.37;8.33;;;;;;;;;;5057165;28;20468;-69
2023/10/18 08:41:25;;;;;;;13.45;8.13;;;;;;;;;;5056376;28;20025;-71
2023/10/18 08:44:05;;;;;;;14.43;8.65;;;;;;;;;;5038360;28;20013;-70
2023/10/18 08:46:36;;;;;;;12.85;8.18;;;;;;;;;;5056229;28;20029;-70
2023/10/18 08:49:03;;;;;;;13.07;8.30;;;;;;;;;;5055238;28;20472;-70
2023/10/18 08:51:28;;;;;;;13.02;8.00;;;;;;;;;;5055716;28;20468;-70
2023/10/18 08:53:54;;;;;;;11.55;8.38;;;;;;;;;;5055726;28;20028;-69
2023/10/18 08:56:29;;;;;;;11.00;7.75;;;;;;;;;;5055612;28;20032;-70
2023/10/18 08:58:56;;;;;;;13.32;8.10;;;;;;;;;;5037616;28;20017;-71
2023/10/18 09:01:22;;;;;;;12.45;7.57;;;;;;;;;;5055315;28;20126;-70
2023/10/18 09:03:47;;;;;;;11.20;7.15;;;;;;;;;;5055249;28;20045;-69
2023/10/18 09:06:22;;;;;;;9.68;7.03;;;;;;;;;;5037184;28;20476;-69
2023/10/18 09:09:01;;;;;;;9.82;6.88;;;;;;;;;;5055222;28;20021;-70
2023/10/18 09:11:28;;;;;;;10.98;6.90;;;;;;;;;;5037012;28;20033;-70
2023/10/18 09:14:08;;;;;;;12.32;6.93;;;;;;;;;;5055195;28;20025;-69
2023/10/18 09:16:40;;;;;;;10.85;6.65;;;;;;;;;;5054978;28;20017;-71
2023/10/18 09:19:09;;;;;;;11.00;6.88;;;;;;;;;;5055141;28;20383;-70
2023/10/18 09:21:56;;;;;;;9.32;6.38;;;;;;;;;;5054959;28;20025;-71
2023/10/18 09:24:30;;;;;;;13.30;6.93;;;;;;;;;;5054881;28;20053;-71
2023/10/18 09:26:57;;;;;;;9.07;6.40;;;;;;;;;;5054795;28;20028;-70
2023/10/18 09:29:25;;;;;;;8.40;6.35;;;;;;;;;;5054655;28;20044;-70
2023/10/18 09:31:53;;;;;;;11.10;6.22;;;;;;;;;;5054755;28;20082;-70
2023/10/18 09:34:18;;;;;;;9.05;6.47;;;;;;;;;;5054643;28;20480;-70
2023/10/18 09:36:54;;;;;;;11.80;6.40;;;;;;;;;;5055003;28;20021;-70
2023/10/18 09:39:21;;;;;;;12.00;6.70;;;;;;;;;;5055536;28;20020;-71
2023/10/18 09:41:46;;;;;;;12.23;6.95;;;;;;;;;;5054881;28;20046;-71
2023/10/18 09:44:12;;;;;;;9.77;6.85;;;;;;;;;;5054583;28;20029;-70
2023/10/18 09:46:38;;;;;;;11.88;7.18;;;;;;;;;;5054617;28;20100;-70
2023/10/18 09:49:06;;;;;;;9.23;6.70;;;;;;;;;;5055594;28;20410;-71
2023/10/18 09:51:32;;;;;;;9.65;6.63;;;;;;;;;;5054795;28;20017;-70
2023/10/18 09:53:59;;;;;;;12.25;6.50;;;;;;;;;;5054778;28;20021;-70
2023/10/18 09:56:26;;;;;;;12.38;6.93;;;;;;;;;;5036433;28;20052;-71
2023/10/18 09:59:04;;;;;;;11.02;6.63;;;;;;;;;;5054528;28;20483;-70
2023/10/18 10:01:30;;;;;;;11.35;6.85;;;;;;;;;;5054412;28;20029;-71
2023/10/18 10:03:58;;;;;;;12.60;7.03;;;;;;;;;;5054310;28;20017;-70
2023/10/18 10:06:24;;;;;;;10.82;6.70;;;;;;;;;;5036175;28;20032;-70
2023/10/18 10:09:12;;;;;;;11.73;6.80;;;;;;;;;;5054266;28;20066;-71
2023/10/18 10:11:43;;;;;;;11.90;7.40;;;;;;;;;;5053860;28;20117;-70
2023/10/18 10:14:09;;;;;;;14.60;7.13;;;;;;;;;;5036355;28;20013;-70
2023/10/18 10:16:36;;;;;;;12.77;6.90;;;;;;;;;;5036176;28;20021;-70
2023/10/18 10:19:04;;;;;;;12.07;7.35;;;;;;;;;;5053882;28;20052;-70
2023/10/18 10:21:31;;;;;;;10.73;6.72;;;;;;;;;;5053866;28;20025;-70
2023/10/18 10:24:06;;;;;;;13.02;7.47;;;;;;;;;;5054162;28;20021;-70
2023/10/18 10:26:35;;;;;;;10.95;6.90;;;;;;;;;;5036219;28;20017;-70
2023/10/18 10:31:53;;;;;;;10.45;6.05;;;;;;;;;;5054433;28;20523;-70
2023/10/18 10:34:24;;;;;;;12.38;7.03;;;;;;;;;;5058661;28;20066;-70
2023/10/18 10:36:49;;;;;;;10.40;6.97;;;;;;;;;;5060744;28;20403;-70
2023/10/18 10:39:22;;;;;;;13.38;6.55;;;;;;;;;;5060417;28;20025;-70
2023/10/18 10:41:48;;;;;;;9.80;6.45;;;;;;;;;;5041585;28;20024;-69
2023/10/18 10:44:38;;;;;;;10.73;5.95;;;;;;;;;;5042669;28;20029;-69
2023/10/18 10:47:29;;;;;;;9.27;6.40;;;;;;;;;;5053993;28;20067;-69
2023/10/18 10:49:58;;;;;;;9.30;6.10;;;;;;;;;;5054094;28;20498;-70
2023/10/18 10:52:29;;;;;;;10.63;6.32;;;;;;;;;;5053049;28;20036;-70
2023/10/18 10:55:01;;;;;;;9.60;6.30;;;;;;;;;;5035924;28;20027;-69
2023/10/18 10:57:28;;;;;;;10.57;6.32;;;;;;;;;;5053451;28;20020;-68
2023/10/18 10:59:55;;;;;;;8.40;6.00;;;;;;;;;;5053549;28;20079;-70
2023/10/18 11:02:32;;;;;;;8.32;5.47;;;;;;;;;;5053359;28;20496;-69
2023/10/18 11:05:00;;;;;;;12.32;6.18;;;;;;;;;;5053204;28;20083;-69
2023/10/18 11:07:26;;;;;;;11.13;6.25;;;;;;;;;;5053255;28;20025;-69
2023/10/18 11:09:59;;;;;;;10.48;5.95;;;;;;;;;;5052497;28;20013;-69
2023/10/18 11:12:26;;;;;;;11.32;6.05;;;;;;;;;;5056874;28;20037;-68
2023/10/18 11:14:52;;;;;;;12.32;5.97;;;;;;;;;;5059747;28;20017;-68
2023/10/18 11:17:18;;;;;;;12.63;6.13;;;;;;;;;;5059613;28;20096;-69
2023/10/18 11:19:43;;;;;;;8.45;5.43;;;;;;;;;;5059605;28;20441;-68
2023/10/18 11:22:11;;;;;;;11.60;6.20;;;;;;;;;;5059872;28;20027;-68
2023/10/18 11:24:42;;;;;;;10.07;6.18;;;;;;;;;;5059704;28;20048;-69
2023/10/18 11:27:10;;;;;;;8.10;5.75;;;;;;;;;;5059683;28;20013;-69
2023/10/18 11:29:38;;;;;;;9.90;5.82;;;;;;;;;;5059499;28;20464;-69
2023/10/18 11:32:06;;;;;;;13.25;6.13;;;;;;;;;;5059517;28;20021;-68
2023/10/18 11:34:33;;;;;;;10.13;6.15;;;;;;;;;;5059592;28;20387;-70
2023/10/18 11:37:02;;;;;;;9.55;5.80;;;;;;;;;;5059527;28;20020;-70
2023/10/18 11:39:33;;;;;;;10.20;6.07;;;;;;;;;;5059531;28;20017;-70
2023/10/18 11:41:59;;;;;;;9.70;5.88;;;;;;;;;;5059471;28;20467;-70
2023/10/18 11:44:31;;;;;;;9.88;5.70;;;;;;;;;;5059536;28;20030;-70
2023/10/18 11:47:08;;;;;;;9.77;6.03;;;;;;;;;;5059418;28;20383;-69
2023/10/18 11:49:37;;;;;;;15.63;5.90;;;;;;;;;;5059567;28;20089;-69
2023/10/18 11:52:03;;;;;;;8.82;5.90;;;;;;;;;;5059510;28;20032;-69
2023/10/18 11:54:29;;;;;;;9.57;5.60;;;;;;;;;;5059370;28;20488;-69
2023/10/18 11:56:56;;;;;;;7.47;5.43;;;;;;;;;;5059481;28;20443;-69
2023/10/18 11:59:22;;;;;;;11.38;5.60;;;;;;;;;;5059483;28;20017;-71
2023/10/18 12:01:53;;;;;;;11.23;5.40;;;;;;;;;;5059198;28;20021;-69
2023/10/18 12:04:27;;;;;;;9.55;5.68;;;;;;;;;;5059359;28;20021;-69
2023/10/18 12:06:52;;;;;;;10.45;5.65;;;;;;;;;;5059392;28;20021;-68
2023/10/18 12:11:45;;;;;;;7.75;5.30;;;;;;;;;;5059221;28;20289;-69
2023/10/18 12:14:10;;;;;;;9.83;5.30;;;;;;;;;;5059277;28;20446;-69
2023/10/18 12:16:35;;;;;;;8.47;5.77;;;;;;;;;;5059074;28;20255;-70
2023/10/18 12:19:01;;;;;;;8.07;5.22;;;;;;;;;;5059245;28;20021;-70
2023/10/18 12:21:29;;;;;;;10.23;5.60;;;;;;;;;;5041291;28;20017;-70
2023/10/18 12:23:55;;;;;;;7.80;5.07;;;;;;;;;;5055927;28;20263;-70
2023/10/18 12:26:24;;;;;;;10.27;5.55;;;;;;;;;;5038079;28;20045;-70
2023/10/18 12:28:51;;;;;;;8.45;5.38;;;;;;;;;;5038196;28;20067;-70
2023/10/18 12:31:26;;;;;;;9.85;5.88;;;;;;;;;;5055788;28;20020;-69
2023/10/18 12:33:51;;;;;;;10.35;5.50;;;;;;;;;;5055904;28;20396;-70
2023/10/18 12:36:22;;;;;;;9.05;5.50;;;;;;;;;;5055814;28;20013;-70
2023/10/18 12:38:48;;;;;;;12.68;5.85;;;;;;;;;;5055987;28;20025;-70
2023/10/18 12:43:44;;;;;;;9.15;5.13;;;;;;;;;;5055812;28;20487;-69
2023/10/18 12:46:15;;;;;;;11.48;5.50;;;;;;;;;;5055637;28;20074;-69
2023/10/18 12:48:41;;;;;;;9.68;5.55;;;;;;;;;;5037617;28;20025;-67
2023/10/18 12:51:12;;;;;;;13.00;5.70;;;;;;;;;;5055747;28;20092;-70
2023/10/18 12:53:39;;;;;;;13.50;5.70;;;;;;;;;;5055487;28;20376;-70
2023/10/18 13:01:32;;;;;;;9.23;5.55;;;;;;;;;;5055399;28;20561;-70
2023/10/18 13:04:00;;;;;;;11.02;5.30;;;;;;;;;;5055409;28;20021;-70
2023/10/18 13:06:35;;;;;;;10.90;5.60;;;;;;;;;;5055316;28;20538;-70
2023/10/18 13:09:34;;;;;;;9.15;5.30;;;;;;;;;;5055309;28;20017;-70
2023/10/18 13:12:00;;;;;;;9.85;5.35;;;;;;;;;;5052840;28;20098;-69
2023/10/18 13:14:31;;;;;;;10.88;5.43;;;;;;;;;;5055097;28;20491;-69
2023/10/18 13:16:58;;;;;;;8.27;5.07;;;;;;;;;;5055010;28;20059;-69
2023/10/18 13:19:30;;;;;;;11.75;5.22;;;;;;;;;;5055138;28;20031;-70
2023/10/18 13:21:56;;;;;;;11.95;5.35;;;;;;;;;;5055003;28;20017;-69
2023/10/18 13:26:52;;;;;;;10.20;5.30;;;;;;;;;;5055145;28;20112;-69
2023/10/18 13:31:49;;;;;;;13.30;5.10;;;;;;;;;;5055168;28;20112;-70
2023/10/18 13:34:20;;;;;;;8.68;5.28;;;;;;;;;;5054638;28;20071;-70
2023/10/18 13:36:47;;;;;;;10.48;4.88;;;;;;;;;;5054703;28;20032;-70
2023/10/18 13:39:12;;;;;;;16.30;5.25;;;;;;;;;;5054679;28;20017;-70
2023/10/18 13:41:39;;;;;;;10.38;4.75;;;;;;;;;;5036669;28;20383;-70
2023/10/18 13:44:05;;;;;;;10.05;4.65;;;;;;;;;;5054514;28;20052;-69
2023/10/18 13:46:30;;;;;;;8.95;5.55;;;;;;;;;;5054862;28;20017;-70
2023/10/18 13:48:55;;;;;;;11.05;5.30;;;;;;;;;;5055316;28;20013;-69
2023/10/18 13:51:21;;;;;;;9.80;5.00;;;;;;;;;;5054994;28;20013;-71
2023/10/18 13:53:46;;;;;;;8.90;4.83;;;;;;;;;;5055147;28;20263;-70
2023/10/18 13:56:12;;;;;;;10.40;4.75;;;;;;;;;;5054732;28;20255;-71
2023/10/18 13:58:38;;;;;;;12.85;4.70;;;;;;;;;;5054721;28;20104;-70
2023/10/18 14:01:05;;;;;;;10.00;4.60;;;;;;;;;;5055021;28;20017;-70
2023/10/18 14:03:31;;;;;;;8.00;4.80;;;;;;;;;;5054688;28;20028;-70
2023/10/18 14:05:57;;;;;;;8.65;5.20;;;;;;;;;;5054560;28;20013;-69
2023/10/18 14:08:22;;;;;;;9.55;5.22;;;;;;;;;;5054778;28;20023;-69
2023/10/18 14:10:49;;;;;;;8.27;4.90;;;;;;;;;;5054457;28;20358;-69
2023/10/18 14:13:16;;;;;;;10.50;4.97;;;;;;;;;;5054208;28;20040;-70
2023/10/18 14:15:43;;;;;;;9.25;5.00;;;;;;;;;;5054530;28;20075;-70
2023/10/18 14:18:08;;;;;;;9.25;4.40;;;;;;;;;;5054406;28;20017;-70
2023/10/18 14:20:37;;;;;;;11.25;4.70;;;;;;;;;;5054470;28;20025;-70
2023/10/18 14:23:06;;;;;;;15.05;5.15;;;;;;;;;;5054335;28;20104;-70
2023/10/18 14:25:32;;;;;;;10.43;4.65;;;;;;;;;;5036131;28;20021;-68
2023/10/18 14:27:57;;;;;;;8.70;4.53;;;;;;;;;;5053924;28;20067;-70
2023/10/18 14:30:22;;;;;;;8.90;4.77;;;;;;;;;;5054295;28;20020;-69
2023/10/18 14:32:47;;;;;;;9.05;4.97;;;;;;;;;;5053641;28;20452;-69
2023/10/18 14:35:13;;;;;;;8.07;4.77;;;;;;;;;;5054123;28;20422;-69
2023/10/18 14:37:41;;;;;;;12.38;4.88;;;;;;;;;;5054245;28;20017;-70
2023/10/18 14:40:08;;;;;;;12.68;5.10;;;;;;;;;;5053859;28;20021;-70
2023/10/18 14:42:33;;;;;;;7.20;4.50;;;;;;;;;;5053935;28;20464;-70
2023/10/18 14:44:58;;;;;;;7.57;4.47;;;;;;;;;;5053768;28;20396;-70
2023/10/18 14:47:24;;;;;;;12.73;4.78;;;;;;;;;;5034482;28;20079;-70
2023/10/18 14:49:50;;;;;;;12.73;5.05;;;;;;;;;;5052351;28;20017;-70
2023/10/18 14:52:19;;;;;;;13.90;5.28;;;;;;;;;;5052442;28;20415;-69
2023/10/18 14:54:45;;;;;;;11.07;4.82;;;;;;;;;;5052558;28;20029;-69
2023/10/18 14:57:10;;;;;;;11.32;4.85;;;;;;;;;;5035024;28;20452;-69
2023/10/18 14:59:36;;;;;;;9.93;5.13;;;;;;;;;;5053252;28;20079;-69
2023/10/18 15:02:02;;;;;;;7.57;5.13;;;;;;;;;;5053699;28;20487;-69
2023/10/18 15:04:28;;;;;;;7.70;5.05;;;;;;;;;;5053550;28;20025;-69
2023/10/18 15:06:53;;;;;;;12.20;5.03;;;;;;;;;;5053615;28;20029;-70
2023/10/18 15:09:19;;;;;;;7.70;4.93;;;;;;;;;;5053738;28;20334;-69
2023/10/18 15:11:44;;;;;;;11.13;4.90;;;;;;;;;;5035307;28;20041;-70
2023/10/18 15:14:11;;;;;;;7.13;4.85;;;;;;;;;;5035443;28;20017;-70
2023/10/18 15:16:37;;;;;;;8.43;5.10;;;;;;;;;;5053392;28;20025;-70
2023/10/18 15:19:03;;;;;;;7.32;4.55;;;;;;;;;;5053705;28;20494;-70
2023/10/18 15:21:31;;;;;;;7.72;4.75;;;;;;;;;;5053554;28;20022;-71